Terminal Aerodrome Forecast
Issued by NWS

Home | Current Version | Previous Version | Text Only | Print | Product List | Glossary On
Versions: 1 2 3 4 5 6 7 8 9 10 11 12 13 14
324
FTUS46 KMTR 240523
TAFSNS
TAF
KSNS 240523Z 2406/2506 31008KT P6SM OVC008
     FM240700 VRB03KT 3SM BR OVC004
     FM240900 12003KT 3/4SM BR VV002
     FM241730 14005KT P6SM SCT005
     FM241830 29012KT P6SM FEW012
     FM250200 29010KT P6SM OVC008=

USA.gov is the U.S. government's official web portal to all federal, state and local government web resources and services.